CheckWX is a tool to help pilots better visualize weather data.  It is not intended as a substitute for an official pre-flight weather briefing.

11:56:14 UTC

DAUG METAR
Noumérat - Moufdi Zakaria Airport
Ghardaïa, Algeria
Current

56 mins ago

DAUG 041100Z 11007KT CAVOK 18/04 Q1020
Observed
Apr-4 @ 11:00 UTC
Wind
  • 110° at 7 KTS
Visibility
10,000+ meters
Flight Rules
VFR
Cloud Levels
  • Clear skies
Temperature
18°C / 64°F
Dewpoint
C / 39°F
Humidity
40%
Altimeter
30.12" Hg
Pressure
1019.92 hPa
Previous

2 hours ago

DAUG 041000Z 08008KT CAVOK 17/04 Q1020
Observed
Apr-4 @ 10:00 UTC
Wind
  • 080° at 8 KTS
Visibility
10,000+ meters
Flight Rules
VFR
Cloud Levels
  • Clear skies
Temperature
17°C / 63°F
Dewpoint
C / 39°F
Humidity
42%
Altimeter
30.12" Hg
Pressure
1019.92 hPa
Previous

3 hours ago

DAUG 040900Z 07010KT CAVOK 15/04 Q1020
Observed
Apr-4 @ 09:00 UTC
Wind
  • 070° at 10 KTS
Visibility
10,000+ meters
Flight Rules
VFR
Cloud Levels
  • Clear skies
Temperature
15°C / 59°F
Dewpoint
C / 39°F
Humidity
48%
Altimeter
30.12" Hg
Pressure
1019.92 hPa